sensor_id;sensor_type;location;lat;lon;timestamp;P1;durP1;ratioP1;P2;durP2;ratioP2
84329;SDS011;74510;42.676;23.432;2023-12-29T00:00:47;174.43;;;65.40;;
84329;SDS011;74510;42.676;23.432;2023-12-29T00:03:12;216.80;;;75.10;;
84329;SDS011;74510;42.676;23.432;2023-12-29T00:05:37;128.40;;;54.67;;
84329;SDS011;74510;42.676;23.432;2023-12-29T00:08:03;104.05;;;45.67;;
84329;SDS011;74510;42.676;23.432;2023-12-29T00:10:29;101.97;;;47.05;;
84329;SDS011;74510;42.676;23.432;2023-12-29T00:12:54;106.45;;;47.95;;
84329;SDS011;74510;42.676;23.432;2023-12-29T00:15:20;89.15;;;41.63;;
84329;SDS011;74510;42.676;23.432;2023-12-29T00:17:45;83.63;;;42.20;;
84329;SDS011;74510;42.676;23.432;2023-12-29T00:20:11;98.72;;;48.63;;
84329;SDS011;74510;42.676;23.432;2023-12-29T00:22:37;86.18;;;41.05;;
84329;SDS011;74510;42.676;23.432;2023-12-29T00:25:03;82.50;;;41.75;;
84329;SDS011;74510;42.676;23.432;2023-12-29T00:27:29;73.38;;;38.75;;
84329;SDS011;74510;42.676;23.432;2023-12-29T00:29:54;76.35;;;39.35;;
84329;SDS011;74510;42.676;23.432;2023-12-29T00:32:20;63.38;;;36.70;;
84329;SDS011;74510;42.676;23.432;2023-12-29T00:34:45;70.32;;;37.80;;
84329;SDS011;74510;42.676;23.432;2023-12-29T00:37:11;76.07;;;37.13;;
84329;SDS011;74510;42.676;23.432;2023-12-29T00:39:36;69.72;;;37.45;;
84329;SDS011;74510;42.676;23.432;2023-12-29T00:42:05;64.05;;;33.33;;
84329;SDS011;74510;42.676;23.432;2023-12-29T00:44:33;60.95;;;31.83;;
84329;SDS011;74510;42.676;23.432;2023-12-29T00:46:59;58.30;;;29.90;;
84329;SDS011;74510;42.676;23.432;2023-12-29T00:49:25;65.28;;;31.30;;
84329;SDS011;74510;42.676;23.432;2023-12-29T00:51:51;57.70;;;30.00;;
84329;SDS011;74510;42.676;23.432;2023-12-29T00:54:16;60.00;;;29.83;;
84329;SDS011;74510;42.676;23.432;2023-12-29T00:56:47;50.95;;;28.13;;
84329;SDS011;74510;42.676;23.432;2023-12-29T00:59:17;52.50;;;28.85;;
84329;SDS011;74510;42.676;23.432;2023-12-29T01:01:43;54.65;;;28.38;;
84329;SDS011;74510;42.676;23.432;2023-12-29T01:04:09;52.00;;;28.38;;
84329;SDS011;74510;42.676;23.432;2023-12-29T01:06:35;54.00;;;28.60;;
84329;SDS011;74510;42.676;23.432;2023-12-29T01:09:00;51.65;;;27.33;;
84329;SDS011;74510;42.676;23.432;2023-12-29T01:11:25;55.10;;;29.00;;
84329;SDS011;74510;42.676;23.432;2023-12-29T01:13:51;54.28;;;28.48;;
84329;SDS011;74510;42.676;23.432;2023-12-29T01:16:16;60.58;;;29.80;;
84329;SDS011;74510;42.676;23.432;2023-12-29T01:18:42;61.40;;;30.40;;
84329;SDS011;74510;42.676;23.432;2023-12-29T01:21:07;61.28;;;30.48;;
84329;SDS011;74510;42.676;23.432;2023-12-29T01:23:32;49.80;;;28.02;;
84329;SDS011;74510;42.676;23.432;2023-12-29T01:25:58;53.78;;;27.00;;
84329;SDS011;74510;42.676;23.432;2023-12-29T01:28:23;68.70;;;35.17;;
84329;SDS011;74510;42.676;23.432;2023-12-29T01:30:50;77.25;;;36.45;;
84329;SDS011;74510;42.676;23.432;2023-12-29T01:33:16;66.13;;;30.33;;
84329;SDS011;74510;42.676;23.432;2023-12-29T01:35:41;52.92;;;26.23;;
84329;SDS011;74510;42.676;23.432;2023-12-29T01:38:07;53.47;;;25.48;;
84329;SDS011;74510;42.676;23.432;2023-12-29T01:40:32;46.08;;;25.85;;
84329;SDS011;74510;42.676;23.432;2023-12-29T01:43:06;46.88;;;24.95;;
84329;SDS011;74510;42.676;23.432;2023-12-29T01:45:32;48.60;;;24.85;;
84329;SDS011;74510;42.676;23.432;2023-12-29T01:47:57;49.30;;;25.58;;
84329;SDS011;74510;42.676;23.432;2023-12-29T01:50:23;52.00;;;27.05;;
84329;SDS011;74510;42.676;23.432;2023-12-29T01:52:48;55.55;;;28.80;;
84329;SDS011;74510;42.676;23.432;2023-12-29T01:55:16;59.22;;;29.52;;
84329;SDS011;74510;42.676;23.432;2023-12-29T01:57:45;56.40;;;26.73;;
84329;SDS011;74510;42.676;23.432;2023-12-29T02:00:11;53.05;;;27.65;;
84329;SDS011;74510;42.676;23.432;2023-12-29T02:02:37;47.78;;;21.95;;
84329;SDS011;74510;42.676;23.432;2023-12-29T02:05:04;49.05;;;25.60;;
84329;SDS011;74510;42.676;23.432;2023-12-29T02:07:30;52.13;;;26.13;;
84329;SDS011;74510;42.676;23.432;2023-12-29T02:09:57;55.85;;;28.83;;
84329;SDS011;74510;42.676;23.432;2023-12-29T02:12:24;70.60;;;34.78;;
84329;SDS011;74510;42.676;23.432;2023-12-29T02:14:50;61.40;;;28.52;;
84329;SDS011;74510;42.676;23.432;2023-12-29T02:17:19;49.45;;;25.73;;
84329;SDS011;74510;42.676;23.432;2023-12-29T02:22:22;46.08;;;23.23;;
84329;SDS011;74510;42.676;23.432;2023-12-29T02:24:50;45.08;;;23.13;;
84329;SDS011;74510;42.676;23.432;2023-12-29T02:27:29;46.85;;;25.48;;
84329;SDS011;74510;42.676;23.432;2023-12-29T02:30:09;47.63;;;25.40;;
84329;SDS011;74510;42.676;23.432;2023-12-29T02:32:42;47.95;;;24.02;;
84329;SDS011;74510;42.676;23.432;2023-12-29T02:35:11;44.35;;;24.27;;
84329;SDS011;74510;42.676;23.432;2023-12-29T02:37:38;53.58;;;25.48;;
84329;SDS011;74510;42.676;23.432;2023-12-29T02:40:05;49.83;;;26.02;;
84329;SDS011;74510;42.676;23.432;2023-12-29T02:42:32;51.38;;;25.55;;
84329;SDS011;74510;42.676;23.432;2023-12-29T02:44:57;50.65;;;26.90;;
84329;SDS011;74510;42.676;23.432;2023-12-29T02:47:22;51.67;;;26.55;;
84329;SDS011;74510;42.676;23.432;2023-12-29T02:49:48;50.80;;;24.75;;
84329;SDS011;74510;42.676;23.432;2023-12-29T02:52:15;56.75;;;28.13;;
84329;SDS011;74510;42.676;23.432;2023-12-29T02:54:40;70.43;;;32.45;;
84329;SDS011;74510;42.676;23.432;2023-12-29T02:57:06;61.67;;;33.13;;
84329;SDS011;74510;42.676;23.432;2023-12-29T02:59:31;63.55;;;31.40;;
84329;SDS011;74510;42.676;23.432;2023-12-29T03:01:56;63.75;;;30.63;;
84329;SDS011;74510;42.676;23.432;2023-12-29T03:04:22;59.42;;;29.98;;
84329;SDS011;74510;42.676;23.432;2023-12-29T03:06:47;57.75;;;28.50;;
84329;SDS011;74510;42.676;23.432;2023-12-29T03:09:13;58.47;;;28.80;;
84329;SDS011;74510;42.676;23.432;2023-12-29T03:11:38;59.17;;;28.05;;
84329;SDS011;74510;42.676;23.432;2023-12-29T03:14:03;56.88;;;28.55;;
84329;SDS011;74510;42.676;23.432;2023-12-29T03:16:29;54.08;;;28.02;;
84329;SDS011;74510;42.676;23.432;2023-12-29T03:18:54;47.40;;;22.83;;
84329;SDS011;74510;42.676;23.432;2023-12-29T03:21:20;44.45;;;23.17;;
84329;SDS011;74510;42.676;23.432;2023-12-29T03:23:46;45.83;;;24.48;;
84329;SDS011;74510;42.676;23.432;2023-12-29T03:26:11;45.65;;;24.27;;
84329;SDS011;74510;42.676;23.432;2023-12-29T03:28:37;43.28;;;26.58;;
84329;SDS011;74510;42.676;23.432;2023-12-29T03:31:02;43.05;;;22.00;;
84329;SDS011;74510;42.676;23.432;2023-12-29T03:33:28;45.53;;;22.10;;
84329;SDS011;74510;42.676;23.432;2023-12-29T03:35:53;41.35;;;21.25;;
84329;SDS011;74510;42.676;23.432;2023-12-29T03:38:19;35.63;;;20.25;;
84329;SDS011;74510;42.676;23.432;2023-12-29T03:40:44;44.97;;;21.23;;
84329;SDS011;74510;42.676;23.432;2023-12-29T03:43:10;36.03;;;20.98;;
84329;SDS011;74510;42.676;23.432;2023-12-29T03:45:35;34.85;;;20.00;;
84329;SDS011;74510;42.676;23.432;2023-12-29T03:48:01;39.10;;;22.23;;
84329;SDS011;74510;42.676;23.432;2023-12-29T03:50:27;41.88;;;21.35;;
84329;SDS011;74510;42.676;23.432;2023-12-29T03:52:52;40.55;;;21.85;;
84329;SDS011;74510;42.676;23.432;2023-12-29T03:55:17;60.17;;;28.20;;
84329;SDS011;74510;42.676;23.432;2023-12-29T03:57:43;53.80;;;26.67;;
84329;SDS011;74510;42.676;23.432;2023-12-29T04:00:11;81.75;;;36.72;;
84329;SDS011;74510;42.676;23.432;2023-12-29T04:02:38;63.08;;;32.05;;
84329;SDS011;74510;42.676;23.432;2023-12-29T04:05:03;62.42;;;30.05;;
84329;SDS011;74510;42.676;23.432;2023-12-29T04:07:30;45.95;;;25.63;;
84329;SDS011;74510;42.676;23.432;2023-12-29T04:09:56;56.65;;;26.33;;
84329;SDS011;74510;42.676;23.432;2023-12-29T04:12:21;68.70;;;34.83;;
84329;SDS011;74510;42.676;23.432;2023-12-29T04:14:46;61.35;;;31.10;;
84329;SDS011;74510;42.676;23.432;2023-12-29T04:17:12;52.05;;;27.23;;
84329;SDS011;74510;42.676;23.432;2023-12-29T04:19:39;58.00;;;28.05;;
84329;SDS011;74510;42.676;23.432;2023-12-29T04:22:06;61.85;;;30.10;;
84329;SDS011;74510;42.676;23.432;2023-12-29T04:24:32;51.20;;;27.48;;
84329;SDS011;74510;42.676;23.432;2023-12-29T04:26:57;47.05;;;27.02;;
84329;SDS011;74510;42.676;23.432;2023-12-29T04:29:23;52.50;;;30.10;;
84329;SDS011;74510;42.676;23.432;2023-12-29T04:31:48;52.67;;;28.70;;
84329;SDS011;74510;42.676;23.432;2023-12-29T04:34:14;55.45;;;31.08;;
84329;SDS011;74510;42.676;23.432;2023-12-29T04:36:40;60.00;;;30.70;;
84329;SDS011;74510;42.676;23.432;2023-12-29T04:39:05;47.95;;;26.25;;
84329;SDS011;74510;42.676;23.432;2023-12-29T04:41:34;45.08;;;22.92;;
84329;SDS011;74510;42.676;23.432;2023-12-29T04:43:59;45.28;;;26.75;;
84329;SDS011;74510;42.676;23.432;2023-12-29T04:46:25;47.22;;;25.65;;
84329;SDS011;74510;42.676;23.432;2023-12-29T04:48:50;45.45;;;22.45;;
84329;SDS011;74510;42.676;23.432;2023-12-29T04:51:16;47.33;;;23.58;;
84329;SDS011;74510;42.676;23.432;2023-12-29T04:53:41;44.08;;;23.08;;
84329;SDS011;74510;42.676;23.432;2023-12-29T04:56:06;46.00;;;25.92;;
84329;SDS011;74510;42.676;23.432;2023-12-29T04:58:32;50.00;;;26.45;;
84329;SDS011;74510;42.676;23.432;2023-12-29T05:00:57;61.53;;;31.92;;
84329;SDS011;74510;42.676;23.432;2023-12-29T05:03:23;67.80;;;32.80;;
84329;SDS011;74510;42.676;23.432;2023-12-29T05:05:48;67.45;;;35.67;;
84329;SDS011;74510;42.676;23.432;2023-12-29T05:08:13;76.63;;;41.08;;
84329;SDS011;74510;42.676;23.432;2023-12-29T05:10:39;85.43;;;43.15;;
84329;SDS011;74510;42.676;23.432;2023-12-29T05:13:04;76.68;;;39.20;;
84329;SDS011;74510;42.676;23.432;2023-12-29T05:15:30;72.70;;;36.63;;
84329;SDS011;74510;42.676;23.432;2023-12-29T05:17:55;73.43;;;36.13;;
84329;SDS011;74510;42.676;23.432;2023-12-29T05:20:20;65.15;;;32.33;;
84329;SDS011;74510;42.676;23.432;2023-12-29T05:22:46;61.80;;;32.08;;
84329;SDS011;74510;42.676;23.432;2023-12-29T05:25:11;70.70;;;31.92;;
84329;SDS011;74510;42.676;23.432;2023-12-29T05:27:37;64.65;;;31.75;;
84329;SDS011;74510;42.676;23.432;2023-12-29T05:30:02;76.53;;;32.80;;
84329;SDS011;74510;42.676;23.432;2023-12-29T05:32:28;45.25;;;24.63;;
84329;SDS011;74510;42.676;23.432;2023-12-29T05:34:53;40.45;;;20.05;;
84329;SDS011;74510;42.676;23.432;2023-12-29T05:37:19;34.65;;;22.33;;
84329;SDS011;74510;42.676;23.432;2023-12-29T05:39:44;28.83;;;16.95;;
84329;SDS011;74510;42.676;23.432;2023-12-29T05:42:10;29.15;;;17.10;;
84329;SDS011;74510;42.676;23.432;2023-12-29T05:44:36;37.10;;;21.70;;
84329;SDS011;74510;42.676;23.432;2023-12-29T05:47:02;39.38;;;20.52;;
84329;SDS011;74510;42.676;23.432;2023-12-29T05:49:27;35.40;;;19.25;;
84329;SDS011;74510;42.676;23.432;2023-12-29T05:51:53;40.50;;;20.58;;
84329;SDS011;74510;42.676;23.432;2023-12-29T05:54:18;42.80;;;20.30;;
84329;SDS011;74510;42.676;23.432;2023-12-29T05:56:43;44.20;;;23.98;;
84329;SDS011;74510;42.676;23.432;2023-12-29T05:59:09;40.78;;;23.67;;
84329;SDS011;74510;42.676;23.432;2023-12-29T06:01:34;48.00;;;24.52;;
84329;SDS011;74510;42.676;23.432;2023-12-29T06:04:00;46.10;;;23.85;;
84329;SDS011;74510;42.676;23.432;2023-12-29T06:06:25;74.53;;;41.03;;
84329;SDS011;74510;42.676;23.432;2023-12-29T06:08:51;59.53;;;34.63;;
84329;SDS011;74510;42.676;23.432;2023-12-29T06:11:16;75.43;;;36.80;;
84329;SDS011;74510;42.676;23.432;2023-12-29T06:13:42;61.50;;;32.58;;
84329;SDS011;74510;42.676;23.432;2023-12-29T06:16:07;51.42;;;29.13;;
84329;SDS011;74510;42.676;23.432;2023-12-29T06:18:33;52.25;;;27.10;;
84329;SDS011;74510;42.676;23.432;2023-12-29T06:20:58;48.35;;;26.95;;
84329;SDS011;74510;42.676;23.432;2023-12-29T06:23:24;72.85;;;36.85;;
84329;SDS011;74510;42.676;23.432;2023-12-29T06:25:52;106.55;;;44.00;;
84329;SDS011;74510;42.676;23.432;2023-12-29T06:28:18;72.90;;;36.03;;
84329;SDS011;74510;42.676;23.432;2023-12-29T06:30:43;87.93;;;40.70;;
84329;SDS011;74510;42.676;23.432;2023-12-29T06:33:09;80.75;;;36.95;;
84329;SDS011;74510;42.676;23.432;2023-12-29T06:35:34;50.15;;;26.17;;
84329;SDS011;74510;42.676;23.432;2023-12-29T06:38:00;53.83;;;27.63;;
84329;SDS011;74510;42.676;23.432;2023-12-29T06:40:25;45.42;;;23.60;;
84329;SDS011;74510;42.676;23.432;2023-12-29T06:42:51;44.80;;;24.15;;
84329;SDS011;74510;42.676;23.432;2023-12-29T06:45:16;47.03;;;25.23;;
84329;SDS011;74510;42.676;23.432;2023-12-29T06:47:41;82.38;;;40.78;;
84329;SDS011;74510;42.676;23.432;2023-12-29T06:50:07;67.15;;;36.97;;
84329;SDS011;74510;42.676;23.432;2023-12-29T06:52:37;63.53;;;30.88;;
84329;SDS011;74510;42.676;23.432;2023-12-29T06:55:03;59.40;;;32.72;;
84329;SDS011;74510;42.676;23.432;2023-12-29T06:57:29;63.67;;;33.50;;
84329;SDS011;74510;42.676;23.432;2023-12-29T06:59:54;77.13;;;41.88;;
84329;SDS011;74510;42.676;23.432;2023-12-29T07:02:20;50.28;;;27.20;;
84329;SDS011;74510;42.676;23.432;2023-12-29T07:04:45;56.70;;;29.02;;
84329;SDS011;74510;42.676;23.432;2023-12-29T07:07:11;48.45;;;25.77;;
84329;SDS011;74510;42.676;23.432;2023-12-29T07:09:39;49.60;;;24.58;;
84329;SDS011;74510;42.676;23.432;2023-12-29T07:12:05;40.58;;;20.73;;
84329;SDS011;74510;42.676;23.432;2023-12-29T07:14:31;45.90;;;25.13;;
84329;SDS011;74510;42.676;23.432;2023-12-29T07:16:56;39.83;;;21.85;;
84329;SDS011;74510;42.676;23.432;2023-12-29T07:19:23;36.78;;;18.50;;
84329;SDS011;74510;42.676;23.432;2023-12-29T07:21:48;34.88;;;19.48;;
84329;SDS011;74510;42.676;23.432;2023-12-29T07:24:14;35.83;;;19.35;;
84329;SDS011;74510;42.676;23.432;2023-12-29T07:26:39;34.10;;;19.30;;
84329;SDS011;74510;42.676;23.432;2023-12-29T07:29:05;45.05;;;24.55;;
84329;SDS011;74510;42.676;23.432;2023-12-29T07:31:31;78.97;;;41.97;;
84329;SDS011;74510;42.676;23.432;2023-12-29T07:33:56;66.15;;;34.17;;
84329;SDS011;74510;42.676;23.432;2023-12-29T07:36:21;44.60;;;21.35;;
84329;SDS011;74510;42.676;23.432;2023-12-29T07:38:47;48.05;;;27.65;;
84329;SDS011;74510;42.676;23.432;2023-12-29T07:41:13;45.38;;;24.95;;
84329;SDS011;74510;42.676;23.432;2023-12-29T07:43:39;45.47;;;25.23;;
84329;SDS011;74510;42.676;23.432;2023-12-29T07:46:04;38.65;;;20.55;;
84329;SDS011;74510;42.676;23.432;2023-12-29T07:48:30;47.13;;;24.60;;
84329;SDS011;74510;42.676;23.432;2023-12-29T07:50:55;42.05;;;22.30;;
84329;SDS011;74510;42.676;23.432;2023-12-29T07:53:28;40.13;;;24.90;;
84329;SDS011;74510;42.676;23.432;2023-12-29T07:55:53;36.58;;;21.42;;
84329;SDS011;74510;42.676;23.432;2023-12-29T07:58:19;36.10;;;21.35;;
84329;SDS011;74510;42.676;23.432;2023-12-29T08:00:45;49.53;;;26.58;;
84329;SDS011;74510;42.676;23.432;2023-12-29T08:03:11;42.53;;;24.10;;
84329;SDS011;74510;42.676;23.432;2023-12-29T08:05:36;21.85;;;14.45;;
84329;SDS011;74510;42.676;23.432;2023-12-29T08:08:01;41.03;;;22.35;;
84329;SDS011;74510;42.676;23.432;2023-12-29T08:10:27;31.83;;;18.02;;
84329;SDS011;74510;42.676;23.432;2023-12-29T08:12:52;39.45;;;21.88;;
84329;SDS011;74510;42.676;23.432;2023-12-29T08:15:19;33.28;;;18.05;;
84329;SDS011;74510;42.676;23.432;2023-12-29T08:17:45;57.13;;;26.85;;
84329;SDS011;74510;42.676;23.432;2023-12-29T08:20:10;46.60;;;24.17;;
84329;SDS011;74510;42.676;23.432;2023-12-29T08:22:36;45.03;;;21.70;;
84329;SDS011;74510;42.676;23.432;2023-12-29T08:25:02;21.38;;;14.20;;
84329;SDS011;74510;42.676;23.432;2023-12-29T08:27:28;41.75;;;22.67;;
84329;SDS011;74510;42.676;23.432;2023-12-29T08:29:54;40.28;;;21.92;;
84329;SDS011;74510;42.676;23.432;2023-12-29T08:32:19;40.47;;;20.85;;
84329;SDS011;74510;42.676;23.432;2023-12-29T08:34:45;41.53;;;22.50;;
84329;SDS011;74510;42.676;23.432;2023-12-29T08:37:11;46.15;;;22.60;;
84329;SDS011;74510;42.676;23.432;2023-12-29T08:39:37;44.83;;;22.73;;
84329;SDS011;74510;42.676;23.432;2023-12-29T08:42:02;46.72;;;23.40;;
84329;SDS011;74510;42.676;23.432;2023-12-29T08:44:28;40.50;;;21.60;;
84329;SDS011;74510;42.676;23.432;2023-12-29T08:46:53;45.08;;;23.20;;
84329;SDS011;74510;42.676;23.432;2023-12-29T08:49:19;41.72;;;27.38;;
84329;SDS011;74510;42.676;23.432;2023-12-29T08:51:45;41.90;;;22.92;;
84329;SDS011;74510;42.676;23.432;2023-12-29T08:54:10;46.17;;;23.15;;
84329;SDS011;74510;42.676;23.432;2023-12-29T08:56:35;43.67;;;23.10;;
84329;SDS011;74510;42.676;23.432;2023-12-29T08:59:01;41.67;;;22.85;;
84329;SDS011;74510;42.676;23.432;2023-12-29T09:01:26;40.20;;;23.05;;
84329;SDS011;74510;42.676;23.432;2023-12-29T09:03:52;51.40;;;25.27;;
84329;SDS011;74510;42.676;23.432;2023-12-29T09:06:17;61.83;;;32.28;;
84329;SDS011;74510;42.676;23.432;2023-12-29T09:08:43;45.88;;;25.20;;
84329;SDS011;74510;42.676;23.432;2023-12-29T09:11:08;43.33;;;23.30;;
84329;SDS011;74510;42.676;23.432;2023-12-29T09:13:34;49.97;;;26.10;;
84329;SDS011;74510;42.676;23.432;2023-12-29T09:15:59;46.38;;;22.30;;
84329;SDS011;74510;42.676;23.432;2023-12-29T09:18:25;37.63;;;20.52;;
84329;SDS011;74510;42.676;23.432;2023-12-29T09:20:50;36.95;;;20.13;;
84329;SDS011;74510;42.676;23.432;2023-12-29T09:23:17;32.72;;;17.17;;
84329;SDS011;74510;42.676;23.432;2023-12-29T09:25:43;34.63;;;18.88;;
84329;SDS011;74510;42.676;23.432;2023-12-29T09:28:08;38.08;;;21.35;;
84329;SDS011;74510;42.676;23.432;2023-12-29T09:30:34;35.45;;;21.30;;
84329;SDS011;74510;42.676;23.432;2023-12-29T09:32:59;39.67;;;20.45;;
84329;SDS011;74510;42.676;23.432;2023-12-29T09:35:25;39.83;;;23.45;;
84329;SDS011;74510;42.676;23.432;2023-12-29T09:37:54;54.40;;;26.23;;
84329;SDS011;74510;42.676;23.432;2023-12-29T09:40:19;41.67;;;21.25;;
84329;SDS011;74510;42.676;23.432;2023-12-29T09:42:45;46.17;;;22.58;;
84329;SDS011;74510;42.676;23.432;2023-12-29T09:45:12;41.55;;;22.90;;
84329;SDS011;74510;42.676;23.432;2023-12-29T09:47:38;40.65;;;22.20;;
84329;SDS011;74510;42.676;23.432;2023-12-29T09:50:10;47.20;;;25.30;;
84329;SDS011;74510;42.676;23.432;2023-12-29T09:52:37;47.42;;;25.33;;
84329;SDS011;74510;42.676;23.432;2023-12-29T09:55:04;41.22;;;24.23;;
84329;SDS011;74510;42.676;23.432;2023-12-29T09:57:32;43.63;;;24.48;;
84329;SDS011;74510;42.676;23.432;2023-12-29T09:59:58;47.90;;;24.50;;
84329;SDS011;74510;42.676;23.432;2023-12-29T10:02:24;51.08;;;23.95;;
84329;SDS011;74510;42.676;23.432;2023-12-29T10:04:50;24.95;;;14.63;;
84329;SDS011;74510;42.676;23.432;2023-12-29T10:07:18;46.30;;;23.30;;
84329;SDS011;74510;42.676;23.432;2023-12-29T10:09:49;29.98;;;17.08;;
84329;SDS011;74510;42.676;23.432;2023-12-29T10:12:17;34.65;;;20.92;;
84329;SDS011;74510;42.676;23.432;2023-12-29T10:15:30;33.05;;;19.30;;
84329;SDS011;74510;42.676;23.432;2023-12-29T10:20:04;33.07;;;20.27;;
84329;SDS011;74510;42.676;23.432;2023-12-29T10:22:39;31.95;;;16.73;;
84329;SDS011;74510;42.676;23.432;2023-12-29T10:25:16;38.78;;;22.58;;
84329;SDS011;74510;42.676;23.432;2023-12-29T10:27:42;41.58;;;23.90;;
84329;SDS011;74510;42.676;23.432;2023-12-29T10:30:09;42.85;;;23.15;;
84329;SDS011;74510;42.676;23.432;2023-12-29T10:32:36;41.15;;;24.33;;
84329;SDS011;74510;42.676;23.432;2023-12-29T10:35:08;40.08;;;23.83;;
84329;SDS011;74510;42.676;23.432;2023-12-29T10:37:37;36.85;;;22.10;;
84329;SDS011;74510;42.676;23.432;2023-12-29T10:40:03;38.60;;;21.15;;
84329;SDS011;74510;42.676;23.432;2023-12-29T10:42:30;39.65;;;21.83;;
84329;SDS011;74510;42.676;23.432;2023-12-29T10:45:04;37.05;;;21.35;;
84329;SDS011;74510;42.676;23.432;2023-12-29T10:47:31;35.95;;;19.92;;
84329;SDS011;74510;42.676;23.432;2023-12-29T10:50:00;39.17;;;21.38;;
84329;SDS011;74510;42.676;23.432;2023-12-29T10:52:26;40.90;;;24.55;;
84329;SDS011;74510;42.676;23.432;2023-12-29T10:54:54;41.78;;;24.58;;
84329;SDS011;74510;42.676;23.432;2023-12-29T10:57:32;34.35;;;20.50;;
84329;SDS011;74510;42.676;23.432;2023-12-29T10:59:57;33.15;;;21.05;;
84329;SDS011;74510;42.676;23.432;2023-12-29T11:02:25;34.20;;;20.95;;
84329;SDS011;74510;42.676;23.432;2023-12-29T11:04:51;36.00;;;21.40;;
84329;SDS011;74510;42.676;23.432;2023-12-29T11:07:30;37.55;;;22.15;;
84329;SDS011;74510;42.676;23.432;2023-12-29T11:10:03;33.92;;;20.40;;
84329;SDS011;74510;42.676;23.432;2023-12-29T11:12:32;41.60;;;25.27;;
84329;SDS011;74510;42.676;23.432;2023-12-29T11:14:59;34.35;;;20.48;;
84329;SDS011;74510;42.676;23.432;2023-12-29T11:17:27;30.48;;;19.73;;
84329;SDS011;74510;42.676;23.432;2023-12-29T11:22:20;33.22;;;19.13;;
84329;SDS011;74510;42.676;23.432;2023-12-29T11:24:47;39.63;;;25.02;;
84329;SDS011;74510;42.676;23.432;2023-12-29T11:27:13;35.60;;;18.95;;
84329;SDS011;74510;42.676;23.432;2023-12-29T11:29:40;33.50;;;20.48;;
84329;SDS011;74510;42.676;23.432;2023-12-29T11:32:08;30.23;;;17.00;;
84329;SDS011;74510;42.676;23.432;2023-12-29T11:34:43;54.15;;;30.95;;
84329;SDS011;74510;42.676;23.432;2023-12-29T11:40:02;28.35;;;17.25;;
84329;SDS011;74510;42.676;23.432;2023-12-29T11:42:31;28.55;;;16.13;;
84329;SDS011;74510;42.676;23.432;2023-12-29T11:47:57;24.95;;;15.55;;
84329;SDS011;74510;42.676;23.432;2023-12-29T11:50:35;24.80;;;15.68;;
84329;SDS011;74510;42.676;23.432;2023-12-29T11:53:08;22.70;;;14.93;;
84329;SDS011;74510;42.676;23.432;2023-12-29T11:55:37;31.33;;;17.40;;
84329;SDS011;74510;42.676;23.432;2023-12-29T11:58:04;33.38;;;17.98;;
84329;SDS011;74510;42.676;23.432;2023-12-29T12:00:48;32.17;;;18.20;;
84329;SDS011;74510;42.676;23.432;2023-12-29T12:03:15;31.95;;;17.42;;
84329;SDS011;74510;42.676;23.432;2023-12-29T12:05:48;31.17;;;18.73;;
84329;SDS011;74510;42.676;23.432;2023-12-29T12:13:55;29.48;;;15.68;;
84329;SDS011;74510;42.676;23.432;2023-12-29T12:19:11;28.63;;;16.05;;
84329;SDS011;74510;42.676;23.432;2023-12-29T12:21:37;25.80;;;16.00;;
84329;SDS011;74510;42.676;23.432;2023-12-29T12:24:03;33.13;;;20.08;;
84329;SDS011;74510;42.676;23.432;2023-12-29T12:26:30;22.48;;;15.60;;
84329;SDS011;74510;42.676;23.432;2023-12-29T12:28:56;25.58;;;16.55;;
84329;SDS011;74510;42.676;23.432;2023-12-29T12:31:23;27.73;;;18.75;;
84329;SDS011;74510;42.676;23.432;2023-12-29T12:33:55;29.85;;;17.85;;
84329;SDS011;74510;42.676;23.432;2023-12-29T12:36:21;27.52;;;16.45;;
84329;SDS011;74510;42.676;23.432;2023-12-29T12:38:53;31.95;;;19.08;;
84329;SDS011;74510;42.676;23.432;2023-12-29T12:41:20;25.98;;;16.95;;
84329;SDS011;74510;42.676;23.432;2023-12-29T12:43:50;31.67;;;17.48;;
84329;SDS011;74510;42.676;23.432;2023-12-29T12:48:47;31.77;;;19.00;;
84329;SDS011;74510;42.676;23.432;2023-12-29T12:51:13;27.63;;;17.95;;
84329;SDS011;74510;42.676;23.432;2023-12-29T12:53:39;29.55;;;17.98;;
84329;SDS011;74510;42.676;23.432;2023-12-29T12:56:06;29.33;;;17.73;;
84329;SDS011;74510;42.676;23.432;2023-12-29T12:58:32;28.80;;;18.05;;
84329;SDS011;74510;42.676;23.432;2023-12-29T13:00:59;33.80;;;19.95;;
84329;SDS011;74510;42.676;23.432;2023-12-29T13:03:25;56.58;;;35.00;;
84329;SDS011;74510;42.676;23.432;2023-12-29T13:05:51;33.80;;;22.08;;
84329;SDS011;74510;42.676;23.432;2023-12-29T13:08:16;29.35;;;20.08;;
84329;SDS011;74510;42.676;23.432;2023-12-29T13:10:42;31.70;;;20.95;;
84329;SDS011;74510;42.676;23.432;2023-12-29T13:13:09;37.22;;;23.25;;
84329;SDS011;74510;42.676;23.432;2023-12-29T13:15:35;34.70;;;21.63;;
84329;SDS011;74510;42.676;23.432;2023-12-29T13:18:00;38.90;;;21.92;;
84329;SDS011;74510;42.676;23.432;2023-12-29T13:20:25;36.55;;;22.48;;
84329;SDS011;74510;42.676;23.432;2023-12-29T13:22:51;41.65;;;22.67;;
84329;SDS011;74510;42.676;23.432;2023-12-29T13:25:24;34.00;;;22.10;;
84329;SDS011;74510;42.676;23.432;2023-12-29T13:27:51;38.03;;;22.98;;
84329;SDS011;74510;42.676;23.432;2023-12-29T13:30:19;36.97;;;24.60;;
84329;SDS011;74510;42.676;23.432;2023-12-29T13:32:45;41.72;;;23.08;;
84329;SDS011;74510;42.676;23.432;2023-12-29T13:38:03;34.42;;;22.25;;
84329;SDS011;74510;42.676;23.432;2023-12-29T13:40:38;35.20;;;22.30;;
84329;SDS011;74510;42.676;23.432;2023-12-29T13:43:12;40.25;;;21.77;;
84329;SDS011;74510;42.676;23.432;2023-12-29T13:45:40;34.63;;;19.30;;
84329;SDS011;74510;42.676;23.432;2023-12-29T13:48:06;37.20;;;20.33;;
84329;SDS011;74510;42.676;23.432;2023-12-29T13:50:33;34.50;;;19.75;;
84329;SDS011;74510;42.676;23.432;2023-12-29T13:52:59;31.35;;;19.02;;
84329;SDS011;74510;42.676;23.432;2023-12-29T13:55:25;41.30;;;23.25;;
84329;SDS011;74510;42.676;23.432;2023-12-29T13:57:50;38.83;;;22.88;;
84329;SDS011;74510;42.676;23.432;2023-12-29T14:00:23;36.90;;;21.08;;
84329;SDS011;74510;42.676;23.432;2023-12-29T14:05:44;35.40;;;20.17;;
84329;SDS011;74510;42.676;23.432;2023-12-29T14:08:24;27.35;;;17.55;;
84329;SDS011;74510;42.676;23.432;2023-12-29T14:10:52;32.92;;;21.27;;
84329;SDS011;74510;42.676;23.432;2023-12-29T14:13:18;41.97;;;26.30;;
84329;SDS011;74510;42.676;23.432;2023-12-29T14:15:45;51.08;;;28.83;;
84329;SDS011;74510;42.676;23.432;2023-12-29T14:20:53;35.08;;;21.08;;
84329;SDS011;74510;42.676;23.432;2023-12-29T14:23:19;32.55;;;20.38;;
84329;SDS011;74510;42.676;23.432;2023-12-29T14:25:47;33.63;;;20.27;;
84329;SDS011;74510;42.676;23.432;2023-12-29T14:28:16;46.55;;;26.75;;
84329;SDS011;74510;42.676;23.432;2023-12-29T14:30:43;47.88;;;27.50;;
84329;SDS011;74510;42.676;23.432;2023-12-29T14:33:09;45.53;;;24.27;;
84329;SDS011;74510;42.676;23.432;2023-12-29T14:35:34;45.08;;;26.30;;
84329;SDS011;74510;42.676;23.432;2023-12-29T14:38:00;53.90;;;30.35;;